sensor_id;sensor_type;location;lat;lon;timestamp;temperature;humidity
29687;DHT22;16599;47.078;15.536;2024-03-07T00:00:18;0.70;99.90
29687;DHT22;16599;47.078;15.536;2024-03-07T00:02:46;0.60;99.90
29687;DHT22;16599;47.078;15.536;2024-03-07T00:05:16;0.70;99.90
29687;DHT22;16599;47.078;15.536;2024-03-07T00:07:44;0.60;99.90
29687;DHT22;16599;47.078;15.536;2024-03-07T00:10:11;0.30;99.90
29687;DHT22;16599;47.078;15.536;2024-03-07T00:12:38;0.50;99.90
29687;DHT22;16599;47.078;15.536;2024-03-07T00:15:07;0.60;99.90
29687;DHT22;16599;47.078;15.536;2024-03-07T00:17:35;0.40;99.90
29687;DHT22;16599;47.078;15.536;2024-03-07T00:20:02;0.40;99.90
29687;DHT22;16599;47.078;15.536;2024-03-07T00:22:31;0.40;99.90
29687;DHT22;16599;47.078;15.536;2024-03-07T00:24:57;0.50;99.90
29687;DHT22;16599;47.078;15.536;2024-03-07T00:27:26;0.20;99.90
29687;DHT22;16599;47.078;15.536;2024-03-07T00:29:53;0.00;99.90
29687;DHT22;16599;47.078;15.536;2024-03-07T00:32:20;0.10;99.90
29687;DHT22;16599;47.078;15.536;2024-03-07T00:34:47;0.20;99.90
29687;DHT22;16599;47.078;15.536;2024-03-07T00:37:15;0.40;99.90
29687;DHT22;16599;47.078;15.536;2024-03-07T00:39:42;0.30;99.90
29687;DHT22;16599;47.078;15.536;2024-03-07T00:42:09;0.30;99.90
29687;DHT22;16599;47.078;15.536;2024-03-07T00:44:36;0.30;99.90
29687;DHT22;16599;47.078;15.536;2024-03-07T00:47:03;0.30;99.90
29687;DHT22;16599;47.078;15.536;2024-03-07T00:49:31;0.30;99.90
29687;DHT22;16599;47.078;15.536;2024-03-07T00:51:58;0.40;99.90
29687;DHT22;16599;47.078;15.536;2024-03-07T00:54:25;0.40;99.90
29687;DHT22;16599;47.078;15.536;2024-03-07T00:56:52;0.30;99.90
29687;DHT22;16599;47.078;15.536;2024-03-07T00:59:19;0.30;99.90
29687;DHT22;16599;47.078;15.536;2024-03-07T01:01:47;0.60;99.90
29687;DHT22;16599;47.078;15.536;2024-03-07T01:04:15;0.50;99.90
29687;DHT22;16599;47.078;15.536;2024-03-07T01:06:42;0.50;99.90
29687;DHT22;16599;47.078;15.536;2024-03-07T01:09:09;0.10;99.90
29687;DHT22;16599;47.078;15.536;2024-03-07T01:11:42;0.00;99.90
29687;DHT22;16599;47.078;15.536;2024-03-07T01:14:09;0.30;99.90
29687;DHT22;16599;47.078;15.536;2024-03-07T01:16:35;0.30;99.90
29687;DHT22;16599;47.078;15.536;2024-03-07T01:19:02;0.40;99.90
29687;DHT22;16599;47.078;15.536;2024-03-07T01:21:33;0.20;99.90
29687;DHT22;16599;47.078;15.536;2024-03-07T01:24:04;0.40;99.90
29687;DHT22;16599;47.078;15.536;2024-03-07T01:26:31;0.20;99.90
29687;DHT22;16599;47.078;15.536;2024-03-07T01:28:57;0.20;99.90
29687;DHT22;16599;47.078;15.536;2024-03-07T01:31:24;0.30;99.90
29687;DHT22;16599;47.078;15.536;2024-03-07T01:33:51;0.10;99.90
29687;DHT22;16599;47.078;15.536;2024-03-07T01:36:19;0.30;99.90
29687;DHT22;16599;47.078;15.536;2024-03-07T01:38:46;0.10;99.90
29687;DHT22;16599;47.078;15.536;2024-03-07T01:41:13;0.20;99.90
29687;DHT22;16599;47.078;15.536;2024-03-07T01:43:41;0.20;99.90
29687;DHT22;16599;47.078;15.536;2024-03-07T01:46:08;0.40;99.90
29687;DHT22;16599;47.078;15.536;2024-03-07T01:48:37;0.10;99.90
29687;DHT22;16599;47.078;15.536;2024-03-07T01:51:04;0.00;99.90
29687;DHT22;16599;47.078;15.536;2024-03-07T01:53:31;0.30;99.90
29687;DHT22;16599;47.078;15.536;2024-03-07T01:55:59;0.00;99.90
29687;DHT22;16599;47.078;15.536;2024-03-07T01:58:26;0.40;99.90
29687;DHT22;16599;47.078;15.536;2024-03-07T02:00:52;0.70;99.90
29687;DHT22;16599;47.078;15.536;2024-03-07T02:03:19;0.50;99.90
29687;DHT22;16599;47.078;15.536;2024-03-07T02:05:46;0.20;99.90
29687;DHT22;16599;47.078;15.536;2024-03-07T02:08:13;0.10;99.90
29687;DHT22;16599;47.078;15.536;2024-03-07T02:10:41;0.00;99.90
29687;DHT22;16599;47.078;15.536;2024-03-07T02:13:08;-0.10;99.90
29687;DHT22;16599;47.078;15.536;2024-03-07T02:15:35;0.00;99.90
29687;DHT22;16599;47.078;15.536;2024-03-07T02:18:02;-0.20;99.90
29687;DHT22;16599;47.078;15.536;2024-03-07T02:20:29;0.00;99.90
29687;DHT22;16599;47.078;15.536;2024-03-07T02:22:55;0.00;99.90
29687;DHT22;16599;47.078;15.536;2024-03-07T02:25:22;-0.10;99.90
29687;DHT22;16599;47.078;15.536;2024-03-07T02:27:49;0.10;99.90
29687;DHT22;16599;47.078;15.536;2024-03-07T02:30:16;-0.10;99.90
29687;DHT22;16599;47.078;15.536;2024-03-07T02:32:46;0.00;99.90
29687;DHT22;16599;47.078;15.536;2024-03-07T02:35:18;0.00;99.90
29687;DHT22;16599;47.078;15.536;2024-03-07T02:37:45;0.10;99.90
29687;DHT22;16599;47.078;15.536;2024-03-07T02:40:15;-0.20;99.90
29687;DHT22;16599;47.078;15.536;2024-03-07T02:42:42;-0.10;99.90
29687;DHT22;16599;47.078;15.536;2024-03-07T02:45:09;-0.30;99.90
29687;DHT22;16599;47.078;15.536;2024-03-07T02:47:39;-0.10;99.90
29687;DHT22;16599;47.078;15.536;2024-03-07T02:50:08;-0.10;99.90
29687;DHT22;16599;47.078;15.536;2024-03-07T02:52:36;0.10;99.90
29687;DHT22;16599;47.078;15.536;2024-03-07T02:55:03;-0.10;99.90
29687;DHT22;16599;47.078;15.536;2024-03-07T02:57:31;0.00;99.90
29687;DHT22;16599;47.078;15.536;2024-03-07T02:59:58;-0.10;99.90
29687;DHT22;16599;47.078;15.536;2024-03-07T03:02:25;-0.20;99.90
29687;DHT22;16599;47.078;15.536;2024-03-07T03:04:52;-0.20;99.90
29687;DHT22;16599;47.078;15.536;2024-03-07T03:07:19;-0.30;99.90
29687;DHT22;16599;47.078;15.536;2024-03-07T03:09:45;-0.10;99.90
29687;DHT22;16599;47.078;15.536;2024-03-07T03:12:12;0.00;99.90
29687;DHT22;16599;47.078;15.536;2024-03-07T03:14:39;0.10;99.90
29687;DHT22;16599;47.078;15.536;2024-03-07T03:17:06;0.00;99.90
29687;DHT22;16599;47.078;15.536;2024-03-07T03:19:35;-0.10;99.90
29687;DHT22;16599;47.078;15.536;2024-03-07T03:22:03;-0.20;99.90
29687;DHT22;16599;47.078;15.536;2024-03-07T03:24:30;-0.10;99.90
29687;DHT22;16599;47.078;15.536;2024-03-07T03:26:57;-0.20;99.90
29687;DHT22;16599;47.078;15.536;2024-03-07T03:29:24;-0.30;99.90
29687;DHT22;16599;47.078;15.536;2024-03-07T03:31:51;-0.10;99.90
29687;DHT22;16599;47.078;15.536;2024-03-07T03:34:18;0.00;99.90
29687;DHT22;16599;47.078;15.536;2024-03-07T03:36:45;-0.40;99.90
29687;DHT22;16599;47.078;15.536;2024-03-07T03:39:11;-0.20;99.90
29687;DHT22;16599;47.078;15.536;2024-03-07T03:41:40;-0.10;99.90
29687;DHT22;16599;47.078;15.536;2024-03-07T03:44:07;-0.10;99.90
29687;DHT22;16599;47.078;15.536;2024-03-07T03:46:34;0.10;99.90
29687;DHT22;16599;47.078;15.536;2024-03-07T03:49:01;0.20;99.90
29687;DHT22;16599;47.078;15.536;2024-03-07T03:51:28;0.10;99.90
29687;DHT22;16599;47.078;15.536;2024-03-07T03:53:54;0.20;99.90
29687;DHT22;16599;47.078;15.536;2024-03-07T03:56:21;0.40;99.90
29687;DHT22;16599;47.078;15.536;2024-03-07T03:58:48;0.40;99.90
29687;DHT22;16599;47.078;15.536;2024-03-07T04:01:15;0.30;99.90
29687;DHT22;16599;47.078;15.536;2024-03-07T04:03:43;0.30;99.90
29687;DHT22;16599;47.078;15.536;2024-03-07T04:06:13;0.40;99.90
29687;DHT22;16599;47.078;15.536;2024-03-07T04:08:40;0.50;99.90
29687;DHT22;16599;47.078;15.536;2024-03-07T04:11:07;0.70;99.90
29687;DHT22;16599;47.078;15.536;2024-03-07T04:13:37;0.60;99.90
29687;DHT22;16599;47.078;15.536;2024-03-07T04:16:04;0.80;99.90
29687;DHT22;16599;47.078;15.536;2024-03-07T04:18:31;0.80;99.90
29687;DHT22;16599;47.078;15.536;2024-03-07T04:20:59;0.80;99.90
29687;DHT22;16599;47.078;15.536;2024-03-07T04:23:28;0.90;99.90
29687;DHT22;16599;47.078;15.536;2024-03-07T04:25:55;1.10;99.90
29687;DHT22;16599;47.078;15.536;2024-03-07T04:28:23;1.10;99.90
29687;DHT22;16599;47.078;15.536;2024-03-07T04:30:49;1.10;99.90
29687;DHT22;16599;47.078;15.536;2024-03-07T04:33:16;1.00;99.90
29687;DHT22;16599;47.078;15.536;2024-03-07T04:35:43;1.00;99.90
29687;DHT22;16599;47.078;15.536;2024-03-07T04:38:10;1.00;99.90
29687;DHT22;16599;47.078;15.536;2024-03-07T04:40:42;1.10;99.90
29687;DHT22;16599;47.078;15.536;2024-03-07T04:43:09;1.00;99.90
29687;DHT22;16599;47.078;15.536;2024-03-07T04:45:36;1.10;99.90
29687;DHT22;16599;47.078;15.536;2024-03-07T04:48:02;1.10;99.90
29687;DHT22;16599;47.078;15.536;2024-03-07T04:50:29;1.10;99.90
29687;DHT22;16599;47.078;15.536;2024-03-07T04:52:56;1.10;99.90
29687;DHT22;16599;47.078;15.536;2024-03-07T04:55:23;1.10;99.90
29687;DHT22;16599;47.078;15.536;2024-03-07T04:57:50;1.20;99.90
29687;DHT22;16599;47.078;15.536;2024-03-07T05:00:18;1.10;99.90
29687;DHT22;16599;47.078;15.536;2024-03-07T05:02:48;1.10;99.90
29687;DHT22;16599;47.078;15.536;2024-03-07T05:05:16;1.20;99.90
29687;DHT22;16599;47.078;15.536;2024-03-07T05:07:50;1.20;99.90
29687;DHT22;16599;47.078;15.536;2024-03-07T05:10:17;1.30;99.90
29687;DHT22;16599;47.078;15.536;2024-03-07T05:12:44;1.30;99.90
29687;DHT22;16599;47.078;15.536;2024-03-07T05:15:11;1.40;99.90
29687;DHT22;16599;47.078;15.536;2024-03-07T05:17:38;1.40;99.90
29687;DHT22;16599;47.078;15.536;2024-03-07T05:20:06;1.50;99.90
29687;DHT22;16599;47.078;15.536;2024-03-07T05:22:38;1.50;99.90
29687;DHT22;16599;47.078;15.536;2024-03-07T05:25:13;1.50;99.90
29687;DHT22;16599;47.078;15.536;2024-03-07T05:27:43;1.30;99.90
29687;DHT22;16599;47.078;15.536;2024-03-07T05:30:11;1.20;99.90
29687;DHT22;16599;47.078;15.536;2024-03-07T05:32:40;1.30;99.90
29687;DHT22;16599;47.078;15.536;2024-03-07T05:35:07;1.40;99.90
29687;DHT22;16599;47.078;15.536;2024-03-07T05:37:34;1.50;99.90
29687;DHT22;16599;47.078;15.536;2024-03-07T05:40:01;1.60;99.90
29687;DHT22;16599;47.078;15.536;2024-03-07T05:42:30;1.50;99.90
29687;DHT22;16599;47.078;15.536;2024-03-07T05:44:58;1.50;99.90
29687;DHT22;16599;47.078;15.536;2024-03-07T05:47:25;1.60;99.90
29687;DHT22;16599;47.078;15.536;2024-03-07T05:49:52;1.60;99.90
29687;DHT22;16599;47.078;15.536;2024-03-07T05:52:19;1.60;99.90
29687;DHT22;16599;47.078;15.536;2024-03-07T05:54:47;1.50;99.90
29687;DHT22;16599;47.078;15.536;2024-03-07T05:57:13;1.60;99.90
29687;DHT22;16599;47.078;15.536;2024-03-07T05:59:40;1.50;99.90
29687;DHT22;16599;47.078;15.536;2024-03-07T06:02:07;1.60;99.90
29687;DHT22;16599;47.078;15.536;2024-03-07T06:04:34;1.70;99.90
29687;DHT22;16599;47.078;15.536;2024-03-07T06:07:01;1.80;99.90
29687;DHT22;16599;47.078;15.536;2024-03-07T06:09:28;1.80;99.90
29687;DHT22;16599;47.078;15.536;2024-03-07T06:11:54;1.80;99.90
29687;DHT22;16599;47.078;15.536;2024-03-07T06:14:21;1.90;99.90
29687;DHT22;16599;47.078;15.536;2024-03-07T06:16:50;1.80;99.90
29687;DHT22;16599;47.078;15.536;2024-03-07T06:19:19;1.70;99.90
29687;DHT22;16599;47.078;15.536;2024-03-07T06:21:45;1.90;99.90
29687;DHT22;16599;47.078;15.536;2024-03-07T06:24:12;1.90;99.90
29687;DHT22;16599;47.078;15.536;2024-03-07T06:26:42;2.00;99.90
29687;DHT22;16599;47.078;15.536;2024-03-07T06:29:15;2.00;99.90
29687;DHT22;16599;47.078;15.536;2024-03-07T06:31:45;2.20;99.90
29687;DHT22;16599;47.078;15.536;2024-03-07T06:34:16;2.30;99.90
29687;DHT22;16599;47.078;15.536;2024-03-07T06:36:44;2.50;99.90
29687;DHT22;16599;47.078;15.536;2024-03-07T06:39:11;2.60;99.90
29687;DHT22;16599;47.078;15.536;2024-03-07T06:41:39;2.60;99.90
29687;DHT22;16599;47.078;15.536;2024-03-07T06:44:06;2.60;99.90
29687;DHT22;16599;47.078;15.536;2024-03-07T06:46:45;2.60;99.90
29687;DHT22;16599;47.078;15.536;2024-03-07T06:49:32;2.70;99.90
29687;DHT22;16599;47.078;15.536;2024-03-07T06:51:59;2.80;99.90
29687;DHT22;16599;47.078;15.536;2024-03-07T06:54:26;2.90;99.90
29687;DHT22;16599;47.078;15.536;2024-03-07T06:56:52;2.90;99.90
29687;DHT22;16599;47.078;15.536;2024-03-07T06:59:19;3.00;99.90
29687;DHT22;16599;47.078;15.536;2024-03-07T07:01:46;3.00;99.90
29687;DHT22;16599;47.078;15.536;2024-03-07T07:04:13;3.20;99.90
29687;DHT22;16599;47.078;15.536;2024-03-07T07:06:41;3.40;99.90
29687;DHT22;16599;47.078;15.536;2024-03-07T07:09:09;3.50;99.90
29687;DHT22;16599;47.078;15.536;2024-03-07T07:11:36;3.60;99.90
29687;DHT22;16599;47.078;15.536;2024-03-07T07:14:03;3.80;99.90
29687;DHT22;16599;47.078;15.536;2024-03-07T07:16:30;3.80;99.90
29687;DHT22;16599;47.078;15.536;2024-03-07T07:18:57;3.90;99.90
29687;DHT22;16599;47.078;15.536;2024-03-07T07:21:24;3.90;99.90
29687;DHT22;16599;47.078;15.536;2024-03-07T07:23:51;4.00;99.90
29687;DHT22;16599;47.078;15.536;2024-03-07T07:26:18;4.00;99.90
29687;DHT22;16599;47.078;15.536;2024-03-07T07:28:45;4.20;99.90
29687;DHT22;16599;47.078;15.536;2024-03-07T07:31:11;4.40;98.50
29687;DHT22;16599;47.078;15.536;2024-03-07T07:33:38;4.50;98.30
29687;DHT22;16599;47.078;15.536;2024-03-07T07:36:06;4.70;98.50
29687;DHT22;16599;47.078;15.536;2024-03-07T07:38:38;4.80;98.90
29687;DHT22;16599;47.078;15.536;2024-03-07T07:41:25;5.00;97.80
29687;DHT22;16599;47.078;15.536;2024-03-07T07:43:52;5.00;97.00
29687;DHT22;16599;47.078;15.536;2024-03-07T07:46:19;5.10;96.90
29687;DHT22;16599;47.078;15.536;2024-03-07T07:48:46;5.20;96.50
29687;DHT22;16599;47.078;15.536;2024-03-07T07:51:13;5.20;95.90
29687;DHT22;16599;47.078;15.536;2024-03-07T07:53:40;5.40;96.40
29687;DHT22;16599;47.078;15.536;2024-03-07T07:56:07;5.40;95.50
29687;DHT22;16599;47.078;15.536;2024-03-07T07:58:41;5.50;95.90
29687;DHT22;16599;47.078;15.536;2024-03-07T08:01:12;5.60;96.00
29687;DHT22;16599;47.078;15.536;2024-03-07T08:03:41;5.80;95.60
29687;DHT22;16599;47.078;15.536;2024-03-07T08:06:07;5.90;95.90
29687;DHT22;16599;47.078;15.536;2024-03-07T08:08:34;5.90;94.80
29687;DHT22;16599;47.078;15.536;2024-03-07T08:13:54;6.00;94.00
29687;DHT22;16599;47.078;15.536;2024-03-07T08:16:21;6.00;93.70
29687;DHT22;16599;47.078;15.536;2024-03-07T08:18:47;6.00;93.60
29687;DHT22;16599;47.078;15.536;2024-03-07T08:21:14;6.10;94.50
29687;DHT22;16599;47.078;15.536;2024-03-07T08:23:41;6.10;94.00
29687;DHT22;16599;47.078;15.536;2024-03-07T08:26:08;6.10;93.60
29687;DHT22;16599;47.078;15.536;2024-03-07T08:28:34;6.10;93.00
29687;DHT22;16599;47.078;15.536;2024-03-07T08:31:03;6.20;93.60
29687;DHT22;16599;47.078;15.536;2024-03-07T08:33:33;6.20;93.90
29687;DHT22;16599;47.078;15.536;2024-03-07T08:36:03;6.20;93.70
29687;DHT22;16599;47.078;15.536;2024-03-07T08:38:31;6.40;94.00
29687;DHT22;16599;47.078;15.536;2024-03-07T08:40:59;6.50;94.00
29687;DHT22;16599;47.078;15.536;2024-03-07T08:46:09;6.80;93.30
29687;DHT22;16599;47.078;15.536;2024-03-07T08:48:36;6.90;92.90
29687;DHT22;16599;47.078;15.536;2024-03-07T08:54:03;6.90;91.60
29687;DHT22;16599;47.078;15.536;2024-03-07T08:56:30;6.80;90.80
29687;DHT22;16599;47.078;15.536;2024-03-07T08:58:57;6.80;91.40
29687;DHT22;16599;47.078;15.536;2024-03-07T09:01:23;6.90;91.00
29687;DHT22;16599;47.078;15.536;2024-03-07T09:03:50;7.00;90.80
29687;DHT22;16599;47.078;15.536;2024-03-07T09:06:17;7.30;91.30
29687;DHT22;16599;47.078;15.536;2024-03-07T09:08:45;7.40;91.20
29687;DHT22;16599;47.078;15.536;2024-03-07T09:11:17;7.40;89.40
29687;DHT22;16599;47.078;15.536;2024-03-07T09:13:47;7.50;88.60
29687;DHT22;16599;47.078;15.536;2024-03-07T09:16:17;7.50;86.10
29687;DHT22;16599;47.078;15.536;2024-03-07T09:18:48;7.60;87.20
29687;DHT22;16599;47.078;15.536;2024-03-07T09:21:15;7.60;87.10
29687;DHT22;16599;47.078;15.536;2024-03-07T09:23:41;7.60;84.90
29687;DHT22;16599;47.078;15.536;2024-03-07T09:26:08;7.50;84.70
29687;DHT22;16599;47.078;15.536;2024-03-07T09:28:35;7.50;85.30
29687;DHT22;16599;47.078;15.536;2024-03-07T09:31:02;7.50;82.60
29687;DHT22;16599;47.078;15.536;2024-03-07T09:33:29;7.40;83.60
29687;DHT22;16599;47.078;15.536;2024-03-07T09:35:58;7.40;84.00
29687;DHT22;16599;47.078;15.536;2024-03-07T09:38:25;7.30;81.80
29687;DHT22;16599;47.078;15.536;2024-03-07T09:40:52;7.20;84.00
29687;DHT22;16599;47.078;15.536;2024-03-07T09:46:33;7.30;85.60
29687;DHT22;16599;47.078;15.536;2024-03-07T09:49:01;7.30;83.70
29687;DHT22;16599;47.078;15.536;2024-03-07T09:51:28;7.40;83.60
29687;DHT22;16599;47.078;15.536;2024-03-07T09:53:56;7.40;83.70
29687;DHT22;16599;47.078;15.536;2024-03-07T09:56:25;7.60;83.30
29687;DHT22;16599;47.078;15.536;2024-03-07T09:58:53;7.70;83.90
29687;DHT22;16599;47.078;15.536;2024-03-07T10:01:21;7.80;84.10
29687;DHT22;16599;47.078;15.536;2024-03-07T10:03:48;7.70;82.80
29687;DHT22;16599;47.078;15.536;2024-03-07T10:06:16;7.60;82.70
29687;DHT22;16599;47.078;15.536;2024-03-07T10:08:43;7.40;83.20
29687;DHT22;16599;47.078;15.536;2024-03-07T10:11:10;7.50;82.10
29687;DHT22;16599;47.078;15.536;2024-03-07T10:13:37;7.50;83.30
29687;DHT22;16599;47.078;15.536;2024-03-07T10:16:04;7.50;83.00
29687;DHT22;16599;47.078;15.536;2024-03-07T10:21:20;7.30;84.10
29687;DHT22;16599;47.078;15.536;2024-03-07T10:24:07;7.30;85.40
29687;DHT22;16599;47.078;15.536;2024-03-07T10:26:54;7.20;84.00
29687;DHT22;16599;47.078;15.536;2024-03-07T10:29:25;7.30;85.00
29687;DHT22;16599;47.078;15.536;2024-03-07T10:31:53;7.40;83.60
29687;DHT22;16599;47.078;15.536;2024-03-07T10:34:39;7.50;84.60
29687;DHT22;16599;47.078;15.536;2024-03-07T10:37:07;7.60;84.50
29687;DHT22;16599;47.078;15.536;2024-03-07T10:39:35;7.60;85.20
29687;DHT22;16599;47.078;15.536;2024-03-07T10:42:02;7.50;85.60
29687;DHT22;16599;47.078;15.536;2024-03-07T10:44:32;7.50;84.50
29687;DHT22;16599;47.078;15.536;2024-03-07T10:47:02;7.40;84.70
29687;DHT22;16599;47.078;15.536;2024-03-07T10:49:31;7.40;85.40
29687;DHT22;16599;47.078;15.536;2024-03-07T10:52:06;7.50;85.40
29687;DHT22;16599;47.078;15.536;2024-03-07T10:54:44;7.50;84.80
29687;DHT22;16599;47.078;15.536;2024-03-07T10:57:20;7.60;85.40
29687;DHT22;16599;47.078;15.536;2024-03-07T10:59:50;7.70;85.50
29687;DHT22;16599;47.078;15.536;2024-03-07T11:05:02;7.40;85.60
29687;DHT22;16599;47.078;15.536;2024-03-07T11:07:34;7.60;85.00
29687;DHT22;16599;47.078;15.536;2024-03-07T11:10:01;7.60;85.40
29687;DHT22;16599;47.078;15.536;2024-03-07T11:12:30;7.50;86.10
29687;DHT22;16599;47.078;15.536;2024-03-07T11:14:57;7.30;86.90
29687;DHT22;16599;47.078;15.536;2024-03-07T11:17:24;7.20;85.80
29687;DHT22;16599;47.078;15.536;2024-03-07T11:19:51;7.10;86.00
29687;DHT22;16599;47.078;15.536;2024-03-07T11:22:28;7.10;87.90
29687;DHT22;16599;47.078;15.536;2024-03-07T11:25:01;7.10;87.20
29687;DHT22;16599;47.078;15.536;2024-03-07T11:27:36;7.10;86.00
29687;DHT22;16599;47.078;15.536;2024-03-07T11:30:06;7.20;86.60
29687;DHT22;16599;47.078;15.536;2024-03-07T11:32:35;7.30;87.60
29687;DHT22;16599;47.078;15.536;2024-03-07T11:35:04;7.20;88.90
29687;DHT22;16599;47.078;15.536;2024-03-07T11:37:37;7.20;87.00
29687;DHT22;16599;47.078;15.536;2024-03-07T11:40:10;6.90;86.50
29687;DHT22;16599;47.078;15.536;2024-03-07T11:42:48;7.00;87.60
29687;DHT22;16599;47.078;15.536;2024-03-07T11:45:16;7.10;87.40
29687;DHT22;16599;47.078;15.536;2024-03-07T11:47:52;7.40;86.80
29687;DHT22;16599;47.078;15.536;2024-03-07T11:50:34;7.30;84.60
29687;DHT22;16599;47.078;15.536;2024-03-07T11:53:03;7.40;84.20
29687;DHT22;16599;47.078;15.536;2024-03-07T11:55:33;7.60;83.60
29687;DHT22;16599;47.078;15.536;2024-03-07T11:58:15;7.70;83.30
29687;DHT22;16599;47.078;15.536;2024-03-07T12:00:48;8.20;81.20
29687;DHT22;16599;47.078;15.536;2024-03-07T12:03:15;8.30;81.90
29687;DHT22;16599;47.078;15.536;2024-03-07T12:05:50;8.20;83.00
29687;DHT22;16599;47.078;15.536;2024-03-07T12:08:20;8.40;80.30
29687;DHT22;16599;47.078;15.536;2024-03-07T12:10:52;8.20;79.60
29687;DHT22;16599;47.078;15.536;2024-03-07T12:13:24;8.20;80.80
29687;DHT22;16599;47.078;15.536;2024-03-07T12:15:53;7.90;80.00
29687;DHT22;16599;47.078;15.536;2024-03-07T12:18:21;8.00;81.40
29687;DHT22;16599;47.078;15.536;2024-03-07T12:20:49;7.60;81.90
29687;DHT22;16599;47.078;15.536;2024-03-07T12:23:24;7.60;81.90
29687;DHT22;16599;47.078;15.536;2024-03-07T12:26:03;7.70;81.30
29687;DHT22;16599;47.078;15.536;2024-03-07T12:28:30;7.80;79.40
29687;DHT22;16599;47.078;15.536;2024-03-07T12:31:02;7.70;79.30
29687;DHT22;16599;47.078;15.536;2024-03-07T12:33:29;7.50;78.60
29687;DHT22;16599;47.078;15.536;2024-03-07T12:36:01;7.50;79.70
29687;DHT22;16599;47.078;15.536;2024-03-07T12:38:33;7.50;80.00
29687;DHT22;16599;47.078;15.536;2024-03-07T12:41:10;7.60;81.50
29687;DHT22;16599;47.078;15.536;2024-03-07T12:43:42;7.90;81.20
29687;DHT22;16599;47.078;15.536;2024-03-07T12:46:12;8.00;82.00
29687;DHT22;16599;47.078;15.536;2024-03-07T12:48:40;8.00;82.80
29687;DHT22;16599;47.078;15.536;2024-03-07T12:51:08;8.10;84.10
29687;DHT22;16599;47.078;15.536;2024-03-07T12:53:36;7.90;85.80
29687;DHT22;16599;47.078;15.536;2024-03-07T12:56:03;7.60;83.70
29687;DHT22;16599;47.078;15.536;2024-03-07T12:58:30;7.20;86.40
29687;DHT22;16599;47.078;15.536;2024-03-07T13:00:57;7.30;87.60
29687;DHT22;16599;47.078;15.536;2024-03-07T13:03:24;7.50;86.80
29687;DHT22;16599;47.078;15.536;2024-03-07T13:05:57;7.40;86.30
29687;DHT22;16599;47.078;15.536;2024-03-07T13:08:28;7.20;87.00
29687;DHT22;16599;47.078;15.536;2024-03-07T13:10:58;7.20;87.70
29687;DHT22;16599;47.078;15.536;2024-03-07T13:13:27;7.20;87.50
29687;DHT22;16599;47.078;15.536;2024-03-07T13:15:54;7.00;87.00
29687;DHT22;16599;47.078;15.536;2024-03-07T13:18:22;7.00;88.40
29687;DHT22;16599;47.078;15.536;2024-03-07T13:20:49;7.10;91.60
29687;DHT22;16599;47.078;15.536;2024-03-07T13:23:16;7.00;90.30
29687;DHT22;16599;47.078;15.536;2024-03-07T13:25:43;7.00;88.70
29687;DHT22;16599;47.078;15.536;2024-03-07T13:28:12;6.90;88.60
29687;DHT22;16599;47.078;15.536;2024-03-07T13:30:51;6.90;87.90
29687;DHT22;16599;47.078;15.536;2024-03-07T13:33:21;7.10;90.80
29687;DHT22;16599;47.078;15.536;2024-03-07T13:35:51;7.10;89.30
29687;DHT22;16599;47.078;15.536;2024-03-07T13:38:21;7.00;89.20
29687;DHT22;16599;47.078;15.536;2024-03-07T13:40:52;7.00;90.50
29687;DHT22;16599;47.078;15.536;2024-03-07T13:43:20;6.80;89.30
29687;DHT22;16599;47.078;15.536;2024-03-07T13:45:51;6.70;90.60
29687;DHT22;16599;47.078;15.536;2024-03-07T13:48:18;6.50;90.60
29687;DHT22;16599;47.078;15.536;2024-03-07T13:50:46;6.40;91.00
29687;DHT22;16599;47.078;15.536;2024-03-07T13:53:26;6.30;90.80
29687;DHT22;16599;47.078;15.536;2024-03-07T14:00:57;6.10;90.80
29687;DHT22;16599;47.078;15.536;2024-03-07T14:06:25;5.80;93.00
29687;DHT22;16599;47.078;15.536;2024-03-07T14:16:53;5.20;98.20
29687;DHT22;16599;47.078;15.536;2024-03-07T14:27:27;5.20;99.20
29687;DHT22;16599;47.078;15.536;2024-03-07T14:32:38;5.30;99.90
29687;DHT22;16599;47.078;15.536;2024-03-07T14:35:12;5.30;98.90
29687;DHT22;16599;47.078;15.536;2024-03-07T14:37:46;5.20;98.20
29687;DHT22;16599;47.078;15.536;2024-03-07T14:40:17;5.10;99.10
29687;DHT22;16599;47.078;15.536;2024-03-07T14:42:45;5.30;99.90
29687;DHT22;16599;47.078;15.536;2024-03-07T14:45:36;5.40;99.80
29687;DHT22;16599;47.078;15.536;2024-03-07T14:48:03;5.40;99.10
29687;DHT22;16599;47.078;15.536;2024-03-07T14:50:37;5.30;98.00
29687;DHT22;16599;47.078;15.536;2024-03-07T14:53:04;5.30;98.50
29687;DHT22;16599;47.078;15.536;2024-03-07T14:55:31;5.30;98.60
29687;DHT22;16599;47.078;15.536;2024-03-07T14:57:58;5.50;98.40
29687;DHT22;16599;47.078;15.536;2024-03-07T15:00:26;5.50;98.40
29687;DHT22;16599;47.078;15.536;2024-03-07T15:03:02;5.50;98.80
29687;DHT22;16599;47.078;15.536;2024-03-07T15:05:29;5.60;99.40
29687;DHT22;16599;47.078;15.536;2024-03-07T15:07:56;5.70;98.00
29687;DHT22;16599;47.078;15.536;2024-03-07T15:10:26;5.80;97.90
29687;DHT22;16599;47.078;15.536;2024-03-07T15:12:54;5.80;97.80
29687;DHT22;16599;47.078;15.536;2024-03-07T15:15:20;5.70;97.40
29687;DHT22;16599;47.078;15.536;2024-03-07T15:17:51;5.80;97.50
29687;DHT22;16599;47.078;15.536;2024-03-07T15:20:18;5.80;97.20
29687;DHT22;16599;47.078;15.536;2024-03-07T15:22:54;5.70;97.30
29687;DHT22;16599;47.078;15.536;2024-03-07T15:25:21;5.70;97.50
29687;DHT22;16599;47.078;15.536;2024-03-07T15:27:51;5.70;97.80
29687;DHT22;16599;47.078;15.536;2024-03-07T15:30:18;5.80;97.90
29687;DHT22;16599;47.078;15.536;2024-03-07T15:32:46;5.40;97.60
29687;DHT22;16599;47.078;15.536;2024-03-07T15:35:13;5.20;99.30
29687;DHT22;16599;47.078;15.536;2024-03-07T15:37:48;5.30;98.70
29687;DHT22;16599;47.078;15.536;2024-03-07T15:40:19;5.30;98.90
29687;DHT22;16599;47.078;15.536;2024-03-07T15:42:48;5.30;98.30
29687;DHT22;16599;47.078;15.536;2024-03-07T15:50:11;5.20;99.10
29687;DHT22;16599;47.078;15.536;2024-03-07T15:52:39;5.20;99.20
29687;DHT22;16599;47.078;15.536;2024-03-07T15:55:06;5.30;99.00
29687;DHT22;16599;47.078;15.536;2024-03-07T15:57:40;5.40;99.10
29687;DHT22;16599;47.078;15.536;2024-03-07T16:00:07;5.50;99.00
29687;DHT22;16599;47.078;15.536;2024-03-07T16:02:44;5.60;98.80
29687;DHT22;16599;47.078;15.536;2024-03-07T16:05:11;5.60;98.60
29687;DHT22;16599;47.078;15.536;2024-03-07T16:07:38;5.60;98.60
29687;DHT22;16599;47.078;15.536;2024-03-07T16:10:04;5.50;98.40
29687;DHT22;16599;47.078;15.536;2024-03-07T16:12:32;5.40;98.20
29687;DHT22;16599;47.078;15.536;2024-03-07T16:15:00;5.40;98.70
29687;DHT22;16599;47.078;15.536;2024-03-07T16:17:27;5.40;99.10
29687;DHT22;16599;47.078;15.536;2024-03-07T16:19:54;5.40;99.50
29687;DHT22;16599;47.078;15.536;2024-03-07T16:22:26;5.40;99.60
29687;DHT22;16599;47.078;15.536;2024-03-07T16:25:12;5.40;99.80
29687;DHT22;16599;47.078;15.536;2024-03-07T16:27:42;5.40;99.80